Pray, MT (59065)

12:01 PM MST on February 01, 2015 (GMT -0700)
Paradise Valley | Change Station
CLOSE
Current Station
Personal Weather Station
Location: Emigrant, MT
Elevation: 4833 ft
Nearby Weather Stations

Elev 4833 ft 45.42 °N, 110.66 °W | Updated 1 minute ago

Partly Cloudy
Partly Cloudy
34.0 °F
Feels Like 26 °F
N
10.4
Wind Variable Wind from SSW

Today
High -- | Low -- °F
--% Chance of Precip.
Yesterday
High -- | Low -- °F
Precip. -- in
7:43 AM 5:29 PM
Waxing Gibbous, 96% visible
Pressure 30.30 in
Visibility 10.0 miles
Clouds Clear
Windchill 26 °F
Dew Point 17 °F
Humidity 49%
Rainfall 0.00 in
Snow Depth Not available.
UV 3 out of 12
Pollen .10 out of 12
Air Quality Not available.
Flu Activity Not available.
METAR KLVM 011853Z AUTO 08006KT 10SM CLR M07/M11 A3012 RMK AO2 SLP261 T10721111

More Conditions Fewer Conditions

Pressure 30.30 in
Visibility 10.0 miles
Clouds Clear
Windchill 26 °F
Dew Point 17 °F
Humidity 49%
Rainfall 0.00 in
Snow Depth Not available.
UV 3 out of 12
Pollen .10 out of 12
Air Quality Not available.
Flu Activity Not available.
METAR KLVM 011853Z AUTO 08006KT 10SM CLR M07/M11 A3012 RMK AO2 SLP261 T10721111

More Conditions Fewer Conditions

10-Day Weather Forecast

Almanac

Astronomy

Feb. 01, 2015 Rise Set
Actual Time
Civil Twilight
Nautical Twilight
Astronomical Twilight
Moon
Length of Visible Light
Length of Day
Tomorrow will be .
, % of the Moon is Illuminated

Today's Extremes

State Highs State Lows

Community

WunderPhotos

Upload Photos

1,792,448 photos uploaded!

WunderBlogs® & News

Nearby

Air Quality

  Air Quality AQ Index Pollutant
Not available.

Snow Depth

Station Depth Elevation

Earthquake Activity

City Distance Mag. Time & Date
Minimum magnitude displayed is 2.5.

Coastal Water Temperatures

Place Temperature

Nearby Weather Stations